Overton, Nevada
Current Conditions -  °F | °C
As of 6:58 PM on Monday 22 Dec 2014 (Local Time) from KLSV Reporting Station
Clear Clear  
Wind Chill: 58°   Ceiling: Unl
Heat Index: 58°   Visibility: 10mi
Dew Point: 45°   Wind: 6mph
Humidity: 63%   Direction: 30°NNE
Pressure: 30.01"   Gusts: NA
Location:  36.54°N, 114.45°W
Report Text: KLSV 230258Z AUTO 03005KT 10SM CLR 14/07 A3001 RMK AO2 SLP161 T01430073 52023 $
Loading
Personal Weather Stations






























Interactive Weather Map New forecast layout! Learn more

10-Day Weather Forecast

Advertisements
Track Severe Weather on mobile